createdAt,value
2019-04-05T00:02:10.785Z,19.42
2019-04-05T00:04:38.800Z,20.82
2019-04-05T00:07:07.167Z,19.25
2019-04-05T00:09:34.218Z,19.70
2019-04-05T00:12:01.258Z,19.07
2019-04-05T00:14:29.399Z,20.15
2019-04-05T00:16:56.666Z,20.80
2019-04-05T00:19:23.982Z,20.52
2019-04-05T00:21:51.023Z,19.77
2019-04-05T00:24:18.074Z,21.05
2019-04-05T00:26:45.115Z,19.80
2019-04-05T00:29:12.165Z,19.32
2019-04-05T00:31:39.202Z,20.57
2019-04-05T00:34:06.256Z,20.80
2019-04-05T00:36:33.292Z,20.57
2019-04-05T00:39:00.452Z,19.82
2019-04-05T00:41:29.111Z,20.97
2019-04-05T00:43:56.162Z,20.72
2019-04-05T00:46:24.520Z,19.90
2019-04-05T00:48:51.570Z,20.43
2019-04-05T00:51:19.027Z,19.82
2019-04-05T00:53:46.379Z,20.02
2019-04-05T00:56:13.413Z,21.12
2019-04-05T00:58:40.467Z,21.93
2019-04-05T01:01:07.831Z,21.25
2019-04-05T01:03:34.883Z,20.88
2019-04-05T01:06:02.253Z,21.37
2019-04-05T01:08:29.305Z,22.13
2019-04-05T01:10:56.645Z,21.15
2019-04-05T01:13:23.684Z,20.82
2019-04-05T01:15:50.736Z,21.65
2019-04-05T01:18:18.112Z,22.05
2019-04-05T01:20:45.446Z,22.00
2019-04-05T01:23:12.479Z,21.50
2019-04-05T01:25:39.528Z,22.70
2019-04-05T01:28:06.573Z,22.55
2019-04-05T01:30:33.617Z,22.02
2019-04-05T01:33:00.657Z,21.40
2019-04-05T01:35:28.042Z,21.85
2019-04-05T01:37:55.075Z,22.07
2019-04-05T01:40:22.131Z,22.77
2019-04-05T01:42:49.172Z,21.42
2019-04-05T01:45:16.228Z,22.32
2019-04-05T01:47:44.507Z,22.20
2019-04-05T01:50:11.860Z,22.45
2019-04-05T01:52:38.910Z,22.30
2019-04-05T01:55:06.209Z,22.80
2019-04-05T01:57:33.315Z,22.98
2019-04-05T02:00:00.368Z,21.48
2019-04-05T02:02:27.717Z,22.05
2019-04-05T02:04:55.070Z,21.75
2019-04-05T02:07:22.105Z,21.12
2019-04-05T02:09:49.153Z,20.77
2019-04-05T02:12:16.266Z,19.75
2019-04-05T02:14:43.318Z,22.00
2019-04-05T02:17:10.615Z,21.48
2019-04-05T02:19:37.668Z,20.45
2019-04-05T02:22:04.700Z,21.33
2019-04-05T02:24:31.733Z,19.73
2019-04-05T02:26:59.113Z,20.97
2019-04-05T02:29:26.224Z,21.37
2019-04-05T02:31:53.276Z,20.27
2019-04-05T02:34:21.744Z,21.15
2019-04-05T02:36:49.048Z,19.98
2019-04-05T02:39:16.088Z,20.15
2019-04-05T02:41:43.455Z,20.88
2019-04-05T02:44:10.495Z,20.02
2019-04-05T02:46:37.800Z,20.10
2019-04-05T02:49:04.844Z,21.48
2019-04-05T02:51:31.895Z,20.70
2019-04-05T02:53:59.410Z,20.92
2019-04-05T02:56:26.455Z,20.95
2019-04-05T02:58:53.734Z,19.73
2019-04-05T03:01:22.716Z,20.08
2019-04-05T03:03:49.958Z,18.92
2019-04-05T03:06:17.012Z,20.85
2019-04-05T03:08:44.050Z,25.77
2019-04-05T03:11:11.408Z,21.55
2019-04-05T03:13:38.467Z,24.70
2019-04-05T03:16:05.504Z,22.58
2019-04-05T03:18:32.857Z,19.85
2019-04-05T03:21:00.209Z,20.30
2019-04-05T03:23:27.263Z,19.17
2019-04-05T03:25:54.315Z,19.23
2019-04-05T03:28:21.355Z,21.75
2019-04-05T03:30:48.406Z,18.25
2019-04-05T03:33:15.467Z,17.70
2019-04-05T03:35:42.539Z,17.45
2019-04-05T03:38:09.574Z,18.17
2019-04-05T03:40:36.626Z,17.45
2019-04-05T03:43:03.659Z,17.32
2019-04-05T03:45:30.718Z,16.25
2019-04-05T03:47:57.757Z,17.07
2019-04-05T03:50:24.808Z,16.77
2019-04-05T03:52:51.844Z,16.95
2019-04-05T03:55:19.197Z,17.00
2019-04-05T03:57:46.249Z,16.67
2019-04-05T04:00:26.256Z,18.40
2019-04-05T04:02:53.326Z,16.45
2019-04-05T04:05:20.698Z,17.20
2019-04-05T04:07:47.757Z,16.37
2019-04-05T04:10:14.817Z,16.20
2019-04-05T04:12:41.849Z,15.70
2019-04-05T04:15:08.884Z,17.80
2019-04-05T04:17:36.266Z,18.32
2019-04-05T04:20:03.306Z,16.12
2019-04-05T04:22:30.666Z,15.78
2019-04-05T04:24:57.689Z,16.30
2019-04-05T04:27:24.744Z,16.85
2019-04-05T04:29:52.096Z,17.55
2019-04-05T04:32:19.403Z,16.82
2019-04-05T04:34:46.805Z,16.40
2019-04-05T04:37:13.858Z,15.50
2019-04-05T04:39:40.896Z,16.73
2019-04-05T04:42:07.957Z,15.95
2019-04-05T04:44:34.994Z,16.10
2019-04-05T04:47:02.353Z,16.25
2019-04-05T04:49:29.710Z,16.80
2019-04-05T04:51:56.757Z,16.67
2019-04-05T04:54:24.129Z,16.55
2019-04-05T04:56:51.234Z,17.82
2019-04-05T04:59:18.221Z,16.97
2019-04-05T05:01:45.557Z,16.87
2019-04-05T05:04:13.484Z,17.67
2019-04-05T05:06:40.536Z,16.77
2019-04-05T05:09:07.936Z,18.73
2019-04-05T05:11:34.984Z,16.97
2019-04-05T05:14:02.279Z,17.73
2019-04-05T05:16:29.329Z,17.35
2019-04-05T05:18:56.366Z,18.45
2019-04-05T05:21:23.785Z,18.12
2019-04-05T05:23:50.827Z,19.23
2019-04-05T05:26:18.189Z,20.30
2019-04-05T05:28:45.549Z,18.98
2019-04-05T05:31:12.897Z,19.05
2019-04-05T05:33:40.256Z,20.70
2019-04-05T05:36:10.489Z,18.87
2019-04-05T05:38:37.627Z,19.00
2019-04-05T05:41:04.663Z,19.92
2019-04-05T05:43:32.031Z,20.68
2019-04-05T05:45:59.065Z,20.80
2019-04-05T05:48:26.437Z,20.35
2019-04-05T05:50:53.470Z,20.85
2019-04-05T05:53:20.834Z,20.95
2019-04-05T05:55:48.220Z,21.93
2019-04-05T05:58:15.264Z,21.15
2019-04-05T06:00:42.312Z,20.35
2019-04-05T06:03:11.178Z,20.43
2019-04-05T06:05:38.161Z,20.77
2019-04-05T06:08:05.493Z,22.13
2019-04-05T06:10:32.530Z,21.20
2019-04-05T06:12:59.883Z,20.70
2019-04-05T06:15:27.254Z,21.50
2019-04-05T06:18:04.473Z,20.25
2019-04-05T06:20:23.321Z,20.52
2019-04-05T06:22:50.368Z,21.30
2019-04-05T06:25:17.644Z,20.43
2019-04-05T06:27:44.694Z,21.70
2019-04-05T06:30:12.083Z,21.50
2019-04-05T06:32:39.210Z,21.00
2019-04-05T06:35:24.738Z,21.90
2019-04-05T06:37:52.072Z,21.65
2019-04-05T06:40:20.281Z,20.77
2019-04-05T06:42:47.336Z,19.75
2019-04-05T06:45:14.375Z,21.00
2019-04-05T06:47:41.814Z,21.75
2019-04-05T06:50:09.154Z,21.45
2019-04-05T06:52:36.221Z,22.00
2019-04-05T06:55:03.267Z,21.12
2019-04-05T06:57:31.370Z,22.00
2019-04-05T06:59:58.418Z,22.32
2019-04-05T07:02:25.453Z,22.15
2019-04-05T07:04:52.507Z,20.77
2019-04-05T07:07:19.548Z,23.83
2019-04-05T07:09:46.598Z,22.07
2019-04-05T07:12:13.628Z,22.52
2019-04-05T07:14:40.681Z,22.58
2019-04-05T07:17:07.720Z,22.00
2019-04-05T07:19:34.773Z,21.90
2019-04-05T07:22:01.815Z,21.65
2019-04-05T07:24:28.865Z,21.45
2019-04-05T07:26:56.206Z,21.80
2019-04-05T07:29:23.253Z,20.70
2019-04-05T07:31:50.299Z,21.93
2019-04-05T07:34:17.651Z,20.52
2019-04-05T07:36:45.025Z,20.57
2019-04-05T07:39:12.079Z,20.02
2019-04-05T07:41:39.128Z,20.20
2019-04-05T07:44:06.479Z,19.05
2019-04-05T07:46:33.833Z,19.57
2019-04-05T07:49:00.884Z,19.25
2019-04-05T07:51:28.897Z,19.65
2019-04-05T07:53:57.953Z,18.98
2019-04-05T07:56:25.284Z,19.40
2019-04-05T07:58:52.322Z,18.98
2019-04-05T08:01:19.365Z,18.65
2019-04-05T08:03:46.402Z,18.98
2019-04-05T08:06:13.456Z,19.48
2019-04-05T08:08:40.490Z,17.57
2019-04-05T08:11:07.550Z,17.57
2019-04-05T08:13:34.593Z,18.95
2019-04-05T08:16:01.647Z,16.80
2019-04-05T08:18:28.687Z,16.93
2019-04-05T08:20:56.035Z,16.32
2019-04-05T08:23:23.024Z,17.75
2019-04-05T08:25:54.517Z,17.32
2019-04-05T08:28:22.947Z,17.45
2019-04-05T08:30:49.996Z,17.60
2019-04-05T08:33:17.030Z,17.55
2019-04-05T08:35:44.088Z,17.87
2019-04-05T08:38:11.551Z,17.30
2019-04-05T08:40:38.602Z,16.15
2019-04-05T08:43:07.648Z,15.05
2019-04-05T08:45:35.048Z,15.65
2019-04-05T08:48:02.422Z,15.20
2019-04-05T08:50:29.478Z,15.18
2019-04-05T08:52:56.515Z,14.70
2019-04-05T08:55:23.578Z,15.43
2019-04-05T08:57:50.919Z,15.80
2019-04-05T09:00:18.275Z,13.83
2019-04-05T09:02:45.380Z,14.63
2019-04-05T09:05:12.787Z,13.40
2019-04-05T09:07:40.094Z,13.25
2019-04-05T09:10:07.502Z,16.62
2019-04-05T09:12:34.538Z,14.65
2019-04-05T09:17:34.143Z,17.37
2019-04-05T09:20:01.500Z,13.93
2019-04-05T09:22:28.533Z,14.60
2019-04-05T09:24:55.572Z,15.85
2019-04-05T09:27:22.771Z,15.40
2019-04-05T09:30:04.896Z,15.93
2019-04-05T09:32:32.323Z,15.53
2019-04-05T09:34:59.358Z,19.37
2019-04-05T09:37:26.414Z,16.07
2019-04-05T09:39:53.455Z,15.40
2019-04-05T09:44:55.839Z,15.00
2019-04-05T09:47:23.197Z,14.00
2019-04-05T09:49:50.240Z,16.70
2019-04-05T09:52:17.289Z,15.30
2019-04-05T09:54:44.662Z,15.78
2019-04-05T09:57:11.721Z,16.20
2019-04-05T09:59:38.745Z,15.08
2019-04-05T10:02:05.797Z,15.88
2019-04-05T10:04:32.837Z,16.50
2019-04-05T10:06:59.885Z,16.30
2019-04-05T10:09:26.932Z,16.50
2019-04-05T10:11:56.178Z,17.15
2019-04-05T10:14:23.209Z,15.58
2019-04-05T10:16:50.258Z,13.35
2019-04-05T10:19:17.581Z,14.58
2019-04-05T10:21:44.936Z,13.83
2019-04-05T10:24:11.972Z,15.30
2019-04-05T10:26:39.340Z,15.18
2019-04-05T10:29:06.710Z,14.43
2019-04-05T10:31:34.017Z,13.25
2019-04-05T10:34:01.301Z,14.10
2019-04-05T10:36:28.350Z,15.18
2019-04-05T10:38:55.721Z,16.67
2019-04-05T10:41:23.220Z,14.90
2019-04-05T10:43:50.292Z,16.40
2019-04-05T10:46:17.346Z,17.15
2019-04-05T10:48:44.740Z,16.95
2019-04-05T10:51:12.033Z,16.15
2019-04-05T10:53:39.070Z,19.42
2019-04-05T10:56:06.478Z,16.97
2019-04-05T10:58:33.579Z,17.80
2019-04-05T11:01:00.548Z,16.95
2019-04-05T11:03:27.665Z,17.02
2019-04-05T11:05:54.696Z,17.67
2019-04-05T11:08:21.746Z,16.65
2019-04-05T11:10:48.776Z,24.32
2019-04-05T11:13:15.829Z,17.35
2019-04-05T11:15:42.861Z,17.02
2019-04-05T11:18:10.314Z,17.40
2019-04-05T11:20:37.349Z,18.00
2019-04-05T11:23:04.425Z,17.30
2019-04-05T11:25:31.766Z,16.00
2019-04-05T11:28:01.008Z,14.23
2019-04-05T11:30:28.041Z,16.95
2019-04-05T11:32:55.088Z,16.27
2019-04-05T11:35:22.130Z,15.13
2019-04-05T11:37:50.656Z,15.30
2019-04-05T11:40:17.894Z,17.10
2019-04-05T11:42:49.436Z,16.37
2019-04-05T11:45:16.752Z,15.13
2019-04-05T11:47:44.108Z,16.73
2019-04-05T11:50:11.140Z,15.32
2019-04-05T11:52:38.194Z,16.32
2019-04-05T11:55:05.238Z,16.75
2019-04-05T11:57:32.277Z,15.53
2019-04-05T11:59:59.655Z,14.53
2019-04-05T12:02:26.954Z,16.15
2019-04-05T12:04:54.831Z,16.95
2019-04-05T12:07:26.268Z,17.40
2019-04-05T12:09:50.654Z,14.63
2019-04-05T12:12:17.676Z,17.05
2019-04-05T12:14:45.015Z,17.20
2019-04-05T12:17:12.387Z,18.62
2019-04-05T12:19:39.436Z,17.37
2019-04-05T12:22:09.101Z,18.42
2019-04-05T12:24:35.505Z,16.62
2019-04-05T12:27:04.841Z,16.85
2019-04-05T12:29:31.665Z,16.67
2019-04-05T12:31:58.704Z,16.35
2019-04-05T12:34:28.458Z,18.32
2019-04-05T12:36:54.795Z,17.07
2019-04-05T12:39:21.848Z,15.32
2019-04-05T12:41:49.220Z,15.15
2019-04-05T12:46:51.305Z,16.37
2019-04-05T12:49:18.634Z,16.75
2019-04-05T12:51:46.198Z,16.70
2019-04-05T12:54:13.669Z,15.32
2019-04-05T12:56:40.706Z,16.70
2019-04-05T12:59:07.760Z,16.73
2019-04-05T13:01:34.797Z,16.32
2019-04-05T13:04:01.859Z,15.05
2019-04-05T13:06:29.204Z,13.78
2019-04-05T13:08:56.259Z,14.60
2019-04-05T13:11:25.885Z,14.35
2019-04-05T13:13:52.041Z,13.90
2019-04-05T13:16:19.077Z,14.87
2019-04-05T13:18:46.125Z,13.30
2019-04-05T13:21:16.162Z,15.03
2019-04-05T13:23:42.180Z,14.45
2019-04-05T13:26:12.237Z,14.80
2019-04-05T13:28:38.325Z,14.18
2019-04-05T13:31:05.357Z,14.20
2019-04-05T13:33:32.405Z,15.30
2019-04-05T13:35:59.711Z,15.15
2019-04-05T13:38:26.767Z,16.73
2019-04-05T13:40:56.715Z,14.30
2019-04-05T13:43:22.861Z,14.85
2019-04-05T13:45:50.258Z,13.90
2019-04-05T13:48:17.630Z,13.70
2019-04-05T13:50:44.667Z,13.20
2019-04-05T13:53:12.045Z,14.20
2019-04-05T13:55:40.742Z,13.70
2019-04-05T13:58:11.322Z,13.95
2019-04-05T14:00:37.681Z,13.93
2019-04-05T14:03:04.744Z,15.88
2019-04-05T14:05:32.076Z,16.42
2019-04-05T14:08:09.938Z,15.38
2019-04-05T14:10:29.301Z,15.83
2019-04-05T14:12:56.697Z,14.98
2019-04-05T14:15:23.747Z,14.63
2019-04-05T14:17:51.856Z,14.68
2019-04-05T14:20:19.803Z,14.93
2019-04-05T14:22:48.637Z,15.65
2019-04-05T14:25:15.668Z,15.65
2019-04-05T14:27:42.712Z,15.03
2019-04-05T14:30:13.649Z,13.65
2019-04-05T14:32:40.827Z,13.48
2019-04-05T14:35:08.410Z,12.47
2019-04-05T14:37:35.431Z,14.68
2019-04-05T14:40:02.722Z,15.32
2019-04-05T14:42:29.933Z,14.25
2019-04-05T14:44:58.399Z,12.07
2019-04-05T14:47:27.986Z,15.10
2019-04-05T14:49:54.426Z,13.30
2019-04-05T14:52:21.750Z,14.13
2019-04-05T14:54:48.800Z,12.82
2019-04-05T14:57:15.836Z,13.03
2019-04-05T14:59:42.894Z,13.72
2019-04-05T15:02:09.934Z,14.73
2019-04-05T15:04:36.994Z,14.73
2019-04-05T15:07:04.024Z,13.32
2019-04-05T15:09:31.072Z,13.53
2019-04-05T15:11:58.677Z,11.78
2019-04-05T15:14:26.276Z,12.82
2019-04-05T15:16:53.328Z,14.73
2019-04-05T15:19:20.710Z,13.20
2019-04-05T15:21:47.757Z,15.13
2019-04-05T15:24:16.888Z,13.62
2019-04-05T15:29:29.716Z,14.23
2019-04-05T15:31:56.769Z,14.20
2019-04-05T15:34:28.127Z,14.07
2019-04-05T15:36:53.087Z,14.70
2019-04-05T15:39:20.121Z,15.10
2019-04-05T15:41:47.507Z,14.00
2019-04-05T15:44:14.850Z,14.53
2019-04-05T15:46:42.199Z,14.93
2019-04-05T15:49:09.553Z,15.20
2019-04-05T15:51:36.607Z,13.70
2019-04-05T15:54:03.651Z,13.75
2019-04-05T15:56:33.152Z,14.83
2019-04-05T15:59:03.500Z,13.85
2019-04-05T16:01:28.200Z,14.30
2019-04-05T16:03:55.241Z,13.38
2019-04-05T16:06:22.296Z,13.62
2019-04-05T16:08:49.734Z,13.48
2019-04-05T16:11:16.773Z,15.30
2019-04-05T16:13:43.825Z,13.78
2019-04-05T16:16:10.878Z,14.28
2019-04-05T16:18:37.982Z,12.75
2019-04-05T16:21:05.045Z,16.35
2019-04-05T16:23:32.442Z,13.62
2019-04-05T16:25:59.496Z,14.15
2019-04-05T16:28:27.672Z,14.13
2019-04-05T16:30:54.727Z,13.93
2019-04-05T16:33:22.051Z,13.50
2019-04-05T16:35:51.663Z,13.80
2019-04-05T16:43:49.502Z,13.53
2019-04-05T16:48:59.761Z,13.65
2019-04-05T16:51:28.981Z,13.55
2019-04-05T16:53:56.214Z,13.18
2019-04-05T16:56:23.269Z,13.72
2019-04-05T16:59:00.450Z,13.95
2019-04-05T17:01:31.155Z,13.25
2019-04-05T17:04:00.679Z,13.62
2019-04-05T17:06:32.708Z,14.30
2019-04-05T17:09:00.436Z,13.25
2019-04-05T17:11:33.703Z,13.90
2019-04-05T17:14:16.212Z,13.83
2019-04-05T17:16:49.189Z,16.05
2019-04-05T17:19:18.164Z,14.00
2019-04-05T17:21:45.303Z,15.43
2019-04-05T17:24:12.604Z,14.28
2019-04-05T17:26:43.777Z,15.80
2019-04-05T17:29:14.084Z,15.23
2019-04-05T17:31:42.264Z,13.18
2019-04-05T17:34:10.421Z,12.45
2019-04-05T17:39:17.333Z,13.20
2019-04-05T17:41:44.591Z,13.43
2019-04-05T17:44:20.630Z,14.20
2019-04-05T17:46:47.907Z,13.05
2019-04-05T17:49:26.090Z,13.18
2019-04-05T17:51:53.361Z,13.93
2019-04-05T17:54:21.623Z,14.13
2019-04-05T17:56:48.850Z,14.30
2019-04-05T17:59:22.882Z,14.13
2019-04-05T18:01:51.085Z,13.38
2019-04-05T18:04:27.911Z,14.43
2019-04-05T18:06:59.468Z,14.25
2019-04-05T18:09:34.805Z,13.55
2019-04-05T18:14:43.481Z,14.40
2019-04-05T18:17:11.666Z,14.10
2019-04-05T18:19:44.734Z,13.65
2019-04-05T18:22:15.276Z,13.75
2019-04-05T18:27:11.529Z,14.50
2019-04-05T18:29:40.706Z,14.23
2019-04-05T18:32:08.904Z,13.28
2019-04-05T18:34:40.328Z,13.72
2019-04-05T18:39:44.391Z,14.20
2019-04-05T18:44:50.161Z,13.98
2019-04-05T18:47:18.426Z,15.10
2019-04-05T18:50:03.251Z,14.07
2019-04-05T18:52:33.718Z,13.18
2019-04-05T18:55:08.025Z,13.20
2019-04-05T18:57:35.078Z,14.23
2019-04-05T19:00:11.460Z,13.95
2019-04-05T19:02:40.644Z,15.28
2019-04-05T19:05:08.808Z,13.65
2019-04-05T19:07:36.998Z,14.58
2019-04-05T19:10:16.318Z,15.15
2019-04-05T19:15:23.291Z,13.95
2019-04-05T19:17:50.486Z,13.50
2019-04-05T19:20:23.758Z,14.30
2019-04-05T19:22:51.036Z,14.20
2019-04-05T19:25:24.204Z,14.00
2019-04-05T19:51:11.995Z,14.05
2019-04-05T19:53:39.061Z,15.28
2019-04-05T19:56:06.991Z,14.78
2019-04-05T19:58:37.249Z,13.58
2019-04-05T20:01:20.563Z,14.47
2019-04-05T20:06:40.584Z,14.13
2019-04-05T20:09:09.822Z,15.13
2019-04-05T20:19:42.004Z,16.10
2019-04-05T20:22:18.949Z,15.25
2019-04-05T20:24:46.142Z,15.50
2019-04-05T20:27:13.186Z,17.40
2019-04-05T20:29:45.366Z,16.52
2019-04-05T20:32:28.438Z,16.77
2019-04-05T20:34:59.014Z,16.23
2019-04-05T20:37:26.056Z,16.90
2019-04-05T20:39:53.309Z,15.75
2019-04-05T20:42:25.570Z,15.95
2019-04-05T20:47:42.206Z,16.73
2019-04-05T20:50:11.789Z,17.67
2019-04-05T20:52:38.946Z,17.30
2019-04-05T20:57:40.435Z,16.57
2019-04-05T21:00:07.495Z,17.65
2019-04-05T21:02:45.258Z,18.32
2019-04-05T21:05:24.705Z,17.95
2019-04-05T21:07:45.937Z,17.45
2019-04-05T21:10:19.016Z,18.17
2019-04-05T21:12:55.061Z,18.02
2019-04-05T21:15:23.254Z,17.98
2019-04-05T21:17:58.473Z,17.42
2019-04-05T21:20:30.325Z,19.23
2019-04-05T21:22:57.488Z,18.23
2019-04-05T21:25:25.683Z,18.67
2019-04-05T21:27:58.651Z,17.90
2019-04-05T21:35:47.144Z,18.02
2019-04-05T21:38:21.500Z,19.50
2019-04-05T21:40:50.664Z,19.73
2019-04-05T21:51:26.737Z,19.20
2019-04-05T21:54:02.931Z,18.05
2019-04-05T21:56:30.497Z,18.67
2019-04-05T21:58:57.528Z,18.25
2019-04-05T22:04:00.821Z,18.48
2019-04-05T22:06:28.112Z,19.23
2019-04-05T22:09:02.417Z,19.27
2019-04-05T22:14:15.710Z,19.17
2019-04-05T22:16:43.959Z,18.20
2019-04-05T22:24:16.426Z,20.05
2019-04-05T22:26:43.982Z,18.60
2019-04-05T22:29:11.750Z,17.25
2019-04-05T22:31:44.016Z,16.42
2019-04-05T22:34:18.261Z,16.67
2019-04-05T22:39:34.755Z,16.80
2019-04-05T22:42:03.237Z,17.42
2019-04-05T22:44:38.854Z,18.12
2019-04-05T22:47:03.887Z,18.05
2019-04-05T22:49:49.283Z,17.37
2019-04-05T22:52:20.244Z,19.52
2019-04-05T22:54:48.404Z,20.62
2019-04-05T22:57:15.934Z,21.48
2019-04-05T22:59:42.970Z,21.20
2019-04-05T23:02:10.227Z,20.20
2019-04-05T23:04:50.725Z,20.45
2019-04-05T23:07:19.282Z,20.30
2019-04-05T23:09:56.800Z,21.52
2019-04-05T23:12:27.410Z,19.67
2019-04-05T23:14:54.608Z,20.25
2019-04-05T23:17:21.852Z,19.52
2019-04-05T23:19:57.478Z,20.17
2019-04-05T23:22:24.653Z,17.85
2019-04-05T23:24:51.891Z,20.35
2019-04-05T23:30:12.274Z,19.17
2019-04-05T23:32:39.477Z,20.68
2019-04-05T23:35:12.758Z,20.08
2019-04-05T23:37:39.800Z,19.90
2019-04-05T23:40:06.854Z,19.52
2019-04-05T23:42:34.175Z,19.85
2019-04-05T23:45:01.532Z,20.97
2019-04-05T23:47:28.644Z,20.15
2019-04-05T23:49:55.683Z,21.25
2019-04-05T23:52:22.732Z,19.70
2019-04-05T23:54:49.817Z,19.40
2019-04-05T23:57:16.822Z,18.87
2019-04-05T23:59:43.857Z,18.90
